sensor_id;sensor_type;location;lat;lon;timestamp;temperature;humidity
5775;DHT22;2913;51.120;6.772;2023-12-04T00:00:01;0.70;99.90
5775;DHT22;2913;51.120;6.772;2023-12-04T00:02:26;0.70;99.90
5775;DHT22;2913;51.120;6.772;2023-12-04T00:04:54;0.80;99.90
5775;DHT22;2913;51.120;6.772;2023-12-04T00:07:20;0.80;99.90
5775;DHT22;2913;51.120;6.772;2023-12-04T00:09:45;0.80;99.90
5775;DHT22;2913;51.120;6.772;2023-12-04T00:12:11;0.80;99.90
5775;DHT22;2913;51.120;6.772;2023-12-04T00:14:37;0.80;99.90
5775;DHT22;2913;51.120;6.772;2023-12-04T00:17:02;0.90;99.90
5775;DHT22;2913;51.120;6.772;2023-12-04T00:19:28;0.90;99.90
5775;DHT22;2913;51.120;6.772;2023-12-04T00:21:56;0.90;99.90
5775;DHT22;2913;51.120;6.772;2023-12-04T00:24:22;0.90;99.90
5775;DHT22;2913;51.120;6.772;2023-12-04T00:26:47;0.90;99.90
5775;DHT22;2913;51.120;6.772;2023-12-04T00:29:15;0.90;99.90
5775;DHT22;2913;51.120;6.772;2023-12-04T00:31:41;0.90;99.90
5775;DHT22;2913;51.120;6.772;2023-12-04T00:34:06;0.90;99.90
5775;DHT22;2913;51.120;6.772;2023-12-04T00:36:34;0.90;99.90
5775;DHT22;2913;51.120;6.772;2023-12-04T00:39:00;0.90;99.90
5775;DHT22;2913;51.120;6.772;2023-12-04T00:41:25;0.90;99.90
5775;DHT22;2913;51.120;6.772;2023-12-04T00:43:51;0.90;99.90
5775;DHT22;2913;51.120;6.772;2023-12-04T00:46:16;0.90;99.90
5775;DHT22;2913;51.120;6.772;2023-12-04T00:48:42;0.90;99.90
5775;DHT22;2913;51.120;6.772;2023-12-04T00:51:10;0.90;99.90
5775;DHT22;2913;51.120;6.772;2023-12-04T00:53:37;0.90;99.90
5775;DHT22;2913;51.120;6.772;2023-12-04T00:56:03;0.90;99.90
5775;DHT22;2913;51.120;6.772;2023-12-04T00:58:29;0.90;99.90
5775;DHT22;2913;51.120;6.772;2023-12-04T01:00:55;0.90;99.90
5775;DHT22;2913;51.120;6.772;2023-12-04T01:03:25;0.90;99.90
5775;DHT22;2913;51.120;6.772;2023-12-04T01:05:52;0.80;99.90
5775;DHT22;2913;51.120;6.772;2023-12-04T01:08:17;0.80;99.90
5775;DHT22;2913;51.120;6.772;2023-12-04T01:10:43;0.90;99.90
5775;DHT22;2913;51.120;6.772;2023-12-04T01:13:11;0.80;99.90
5775;DHT22;2913;51.120;6.772;2023-12-04T01:15:36;0.90;99.90
5775;DHT22;2913;51.120;6.772;2023-12-04T01:18:04;0.90;99.90
5775;DHT22;2913;51.120;6.772;2023-12-04T01:20:32;0.90;99.90
5775;DHT22;2913;51.120;6.772;2023-12-04T01:22:58;0.80;99.90
5775;DHT22;2913;51.120;6.772;2023-12-04T01:25:24;0.80;99.90
5775;DHT22;2913;51.120;6.772;2023-12-04T01:27:50;0.80;99.90
5775;DHT22;2913;51.120;6.772;2023-12-04T01:30:20;0.80;99.90
5775;DHT22;2913;51.120;6.772;2023-12-04T01:32:46;0.80;99.90
5775;DHT22;2913;51.120;6.772;2023-12-04T01:35:11;0.80;99.90
5775;DHT22;2913;51.120;6.772;2023-12-04T01:37:37;0.70;99.90
5775;DHT22;2913;51.120;6.772;2023-12-04T01:40:06;0.70;99.90
5775;DHT22;2913;51.120;6.772;2023-12-04T01:42:34;0.70;99.90
5775;DHT22;2913;51.120;6.772;2023-12-04T01:45:00;0.70;99.90
5775;DHT22;2913;51.120;6.772;2023-12-04T01:47:25;0.70;99.90
5775;DHT22;2913;51.120;6.772;2023-12-04T01:49:51;0.70;99.90
5775;DHT22;2913;51.120;6.772;2023-12-04T01:52:17;0.70;99.90
5775;DHT22;2913;51.120;6.772;2023-12-04T01:54:43;0.70;99.90
5775;DHT22;2913;51.120;6.772;2023-12-04T01:57:09;0.70;99.90
5775;DHT22;2913;51.120;6.772;2023-12-04T01:59:36;0.70;99.90
5775;DHT22;2913;51.120;6.772;2023-12-04T02:02:01;0.70;99.90
5775;DHT22;2913;51.120;6.772;2023-12-04T02:04:27;0.80;99.90
5775;DHT22;2913;51.120;6.772;2023-12-04T02:06:53;0.70;99.90
5775;DHT22;2913;51.120;6.772;2023-12-04T02:09:19;0.70;99.90
5775;DHT22;2913;51.120;6.772;2023-12-04T02:11:44;0.70;99.90
5775;DHT22;2913;51.120;6.772;2023-12-04T02:14:13;0.70;99.90
5775;DHT22;2913;51.120;6.772;2023-12-04T02:16:44;0.80;99.90
5775;DHT22;2913;51.120;6.772;2023-12-04T02:19:13;0.80;99.90
5775;DHT22;2913;51.120;6.772;2023-12-04T02:21:39;0.80;99.90
5775;DHT22;2913;51.120;6.772;2023-12-04T02:24:07;0.80;99.90
5775;DHT22;2913;51.120;6.772;2023-12-04T02:26:42;0.90;99.90
5775;DHT22;2913;51.120;6.772;2023-12-04T02:29:32;0.90;99.90
5775;DHT22;2913;51.120;6.772;2023-12-04T02:32:02;0.80;99.90
5775;DHT22;2913;51.120;6.772;2023-12-04T02:34:33;0.90;99.90
5775;DHT22;2913;51.120;6.772;2023-12-04T02:37:02;0.80;99.90
5775;DHT22;2913;51.120;6.772;2023-12-04T02:39:32;0.80;99.90
5775;DHT22;2913;51.120;6.772;2023-12-04T02:42:03;0.80;99.90
5775;DHT22;2913;51.120;6.772;2023-12-04T02:44:30;0.80;99.90
5775;DHT22;2913;51.120;6.772;2023-12-04T02:46:56;2.40;99.90
5775;DHT22;2913;51.120;6.772;2023-12-04T02:49:22;0.80;99.90
5775;DHT22;2913;51.120;6.772;2023-12-04T02:51:50;0.90;99.90
5775;DHT22;2913;51.120;6.772;2023-12-04T02:54:18;0.90;99.90
5775;DHT22;2913;51.120;6.772;2023-12-04T02:56:43;0.80;99.90
5775;DHT22;2913;51.120;6.772;2023-12-04T02:59:09;0.80;99.90
5775;DHT22;2913;51.120;6.772;2023-12-04T03:01:34;0.80;99.90
5775;DHT22;2913;51.120;6.772;2023-12-04T03:04:02;0.80;99.90
5775;DHT22;2913;51.120;6.772;2023-12-04T03:06:30;0.80;99.90
5775;DHT22;2913;51.120;6.772;2023-12-04T03:08:59;0.90;99.90
5775;DHT22;2913;51.120;6.772;2023-12-04T03:11:25;0.90;99.90
5775;DHT22;2913;51.120;6.772;2023-12-04T03:13:51;0.80;99.90
5775;DHT22;2913;51.120;6.772;2023-12-04T03:16:17;0.80;99.90
5775;DHT22;2913;51.120;6.772;2023-12-04T03:18:45;0.80;99.90
5775;DHT22;2913;51.120;6.772;2023-12-04T03:21:11;0.90;99.90
5775;DHT22;2913;51.120;6.772;2023-12-04T03:23:37;0.80;99.90
5775;DHT22;2913;51.120;6.772;2023-12-04T03:26:03;0.90;99.90
5775;DHT22;2913;51.120;6.772;2023-12-04T03:28:30;0.80;99.90
5775;DHT22;2913;51.120;6.772;2023-12-04T03:30:58;0.80;99.90
5775;DHT22;2913;51.120;6.772;2023-12-04T03:33:24;0.90;99.90
5775;DHT22;2913;51.120;6.772;2023-12-04T03:35:49;0.80;99.90
5775;DHT22;2913;51.120;6.772;2023-12-04T03:38:15;0.80;99.90
5775;DHT22;2913;51.120;6.772;2023-12-04T03:40:41;0.80;99.90
5775;DHT22;2913;51.120;6.772;2023-12-04T03:43:09;0.90;99.90
5775;DHT22;2913;51.120;6.772;2023-12-04T03:45:34;0.90;99.90
5775;DHT22;2913;51.120;6.772;2023-12-04T03:50:28;0.90;99.90
5775;DHT22;2913;51.120;6.772;2023-12-04T03:52:56;0.90;99.90
5775;DHT22;2913;51.120;6.772;2023-12-04T03:55:24;0.90;99.90
5775;DHT22;2913;51.120;6.772;2023-12-04T03:57:49;1.00;99.90
5775;DHT22;2913;51.120;6.772;2023-12-04T04:00:16;0.90;99.90
5775;DHT22;2913;51.120;6.772;2023-12-04T04:02:44;0.90;99.90
5775;DHT22;2913;51.120;6.772;2023-12-04T04:05:09;0.90;99.90
5775;DHT22;2913;51.120;6.772;2023-12-04T04:07:35;0.90;99.90
5775;DHT22;2913;51.120;6.772;2023-12-04T04:10:03;0.90;99.90
5775;DHT22;2913;51.120;6.772;2023-12-04T04:12:37;0.90;99.90
5775;DHT22;2913;51.120;6.772;2023-12-04T04:15:05;0.90;99.90
5775;DHT22;2913;51.120;6.772;2023-12-04T04:17:32;0.90;99.90
5775;DHT22;2913;51.120;6.772;2023-12-04T04:20:00;0.90;99.90
5775;DHT22;2913;51.120;6.772;2023-12-04T04:22:25;0.90;99.90
5775;DHT22;2913;51.120;6.772;2023-12-04T04:24:54;0.90;99.90
5775;DHT22;2913;51.120;6.772;2023-12-04T04:27:19;0.90;99.90
5775;DHT22;2913;51.120;6.772;2023-12-04T04:29:45;0.90;99.90
5775;DHT22;2913;51.120;6.772;2023-12-04T04:32:11;0.90;99.90
5775;DHT22;2913;51.120;6.772;2023-12-04T04:34:36;0.90;99.90
5775;DHT22;2913;51.120;6.772;2023-12-04T04:37:02;0.90;99.90
5775;DHT22;2913;51.120;6.772;2023-12-04T04:39:27;0.70;99.90
5775;DHT22;2913;51.120;6.772;2023-12-04T04:41:53;0.80;99.90
5775;DHT22;2913;51.120;6.772;2023-12-04T04:44:21;0.90;99.90
5775;DHT22;2913;51.120;6.772;2023-12-04T04:46:47;0.80;99.90
5775;DHT22;2913;51.120;6.772;2023-12-04T04:49:12;0.80;99.90
5775;DHT22;2913;51.120;6.772;2023-12-04T04:51:40;0.80;99.90
5775;DHT22;2913;51.120;6.772;2023-12-04T04:54:05;0.90;99.90
5775;DHT22;2913;51.120;6.772;2023-12-04T04:56:31;0.90;99.90
5775;DHT22;2913;51.120;6.772;2023-12-04T04:58:59;0.90;99.90
5775;DHT22;2913;51.120;6.772;2023-12-04T05:01:25;0.80;99.90
5775;DHT22;2913;51.120;6.772;2023-12-04T05:03:50;0.80;99.90
5775;DHT22;2913;51.120;6.772;2023-12-04T05:06:18;0.80;99.90
5775;DHT22;2913;51.120;6.772;2023-12-04T05:08:44;0.80;99.90
5775;DHT22;2913;51.120;6.772;2023-12-04T05:11:14;0.90;99.90
5775;DHT22;2913;51.120;6.772;2023-12-04T05:13:42;0.90;99.90
5775;DHT22;2913;51.120;6.772;2023-12-04T05:16:10;0.90;99.90
5775;DHT22;2913;51.120;6.772;2023-12-04T05:18:37;0.80;99.90
5775;DHT22;2913;51.120;6.772;2023-12-04T05:21:03;0.80;99.90
5775;DHT22;2913;51.120;6.772;2023-12-04T05:28:21;0.80;99.90
5775;DHT22;2913;51.120;6.772;2023-12-04T05:33:14;0.80;99.90
5775;DHT22;2913;51.120;6.772;2023-12-04T05:35:40;0.80;99.90
5775;DHT22;2913;51.120;6.772;2023-12-04T05:38:05;0.80;99.90
5775;DHT22;2913;51.120;6.772;2023-12-04T05:40:33;0.90;99.90
5775;DHT22;2913;51.120;6.772;2023-12-04T05:42:58;0.90;99.90
5775;DHT22;2913;51.120;6.772;2023-12-04T05:45:24;0.80;99.90
5775;DHT22;2913;51.120;6.772;2023-12-04T05:47:49;0.90;99.90
5775;DHT22;2913;51.120;6.772;2023-12-04T05:50:20;0.80;99.90
5775;DHT22;2913;51.120;6.772;2023-12-04T05:52:48;0.90;99.90
5775;DHT22;2913;51.120;6.772;2023-12-04T05:55:16;0.90;99.90
5775;DHT22;2913;51.120;6.772;2023-12-04T05:57:44;0.90;99.90
5775;DHT22;2913;51.120;6.772;2023-12-04T06:00:10;0.80;99.90
5775;DHT22;2913;51.120;6.772;2023-12-04T06:02:38;0.80;99.90
5775;DHT22;2913;51.120;6.772;2023-12-04T06:05:06;0.80;99.90
5775;DHT22;2913;51.120;6.772;2023-12-04T06:07:33;0.80;99.90
5775;DHT22;2913;51.120;6.772;2023-12-04T06:09:59;0.70;99.90
5775;DHT22;2913;51.120;6.772;2023-12-04T06:12:24;0.70;99.90
5775;DHT22;2913;51.120;6.772;2023-12-04T06:14:52;0.70;99.90
5775;DHT22;2913;51.120;6.772;2023-12-04T06:17:23;0.70;99.90
5775;DHT22;2913;51.120;6.772;2023-12-04T06:19:48;0.70;99.90
5775;DHT22;2913;51.120;6.772;2023-12-04T06:22:14;0.60;99.90
5775;DHT22;2913;51.120;6.772;2023-12-04T06:24:41;0.70;99.90
5775;DHT22;2913;51.120;6.772;2023-12-04T06:27:07;0.60;99.90
5775;DHT22;2913;51.120;6.772;2023-12-04T06:29:34;0.60;99.90
5775;DHT22;2913;51.120;6.772;2023-12-04T06:32:01;0.60;99.90
5775;DHT22;2913;51.120;6.772;2023-12-04T06:34:27;0.60;99.90
5775;DHT22;2913;51.120;6.772;2023-12-04T06:36:57;0.60;99.90
5775;DHT22;2913;51.120;6.772;2023-12-04T06:39:25;0.60;99.90
5775;DHT22;2913;51.120;6.772;2023-12-04T06:41:54;0.60;99.90
5775;DHT22;2913;51.120;6.772;2023-12-04T06:44:20;0.60;99.90
5775;DHT22;2913;51.120;6.772;2023-12-04T06:46:49;0.60;99.90
5775;DHT22;2913;51.120;6.772;2023-12-04T06:49:20;0.60;99.90
5775;DHT22;2913;51.120;6.772;2023-12-04T06:51:48;0.60;99.90
5775;DHT22;2913;51.120;6.772;2023-12-04T06:54:14;0.60;99.90
5775;DHT22;2913;51.120;6.772;2023-12-04T06:56:39;0.70;99.90
5775;DHT22;2913;51.120;6.772;2023-12-04T06:59:07;0.60;99.90
5775;DHT22;2913;51.120;6.772;2023-12-04T07:01:33;0.60;99.90
5775;DHT22;2913;51.120;6.772;2023-12-04T07:04:01;0.50;99.90
5775;DHT22;2913;51.120;6.772;2023-12-04T07:06:27;0.60;99.90
5775;DHT22;2913;51.120;6.772;2023-12-04T07:08:55;0.50;99.90
5775;DHT22;2913;51.120;6.772;2023-12-04T07:11:20;0.50;99.90
5775;DHT22;2913;51.120;6.772;2023-12-04T07:13:46;0.60;99.90
5775;DHT22;2913;51.120;6.772;2023-12-04T07:16:11;0.30;99.90
5775;DHT22;2913;51.120;6.772;2023-12-04T07:18:39;0.60;99.90
5775;DHT22;2913;51.120;6.772;2023-12-04T07:21:07;0.60;99.90
5775;DHT22;2913;51.120;6.772;2023-12-04T07:23:38;0.60;99.90
5775;DHT22;2913;51.120;6.772;2023-12-04T07:26:08;0.70;99.90
5775;DHT22;2913;51.120;6.772;2023-12-04T07:28:34;0.60;99.90
5775;DHT22;2913;51.120;6.772;2023-12-04T07:31:04;0.70;99.90
5775;DHT22;2913;51.120;6.772;2023-12-04T07:33:30;0.70;99.90
5775;DHT22;2913;51.120;6.772;2023-12-04T07:35:58;0.70;99.90
5775;DHT22;2913;51.120;6.772;2023-12-04T07:38:28;0.70;99.90
5775;DHT22;2913;51.120;6.772;2023-12-04T07:40:53;0.80;99.90
5775;DHT22;2913;51.120;6.772;2023-12-04T07:43:19;0.80;99.90
5775;DHT22;2913;51.120;6.772;2023-12-04T07:45:47;0.90;99.90
5775;DHT22;2913;51.120;6.772;2023-12-04T07:48:15;0.90;99.90
5775;DHT22;2913;51.120;6.772;2023-12-04T07:50:48;0.90;99.90
5775;DHT22;2913;51.120;6.772;2023-12-04T07:53:14;0.90;99.90
5775;DHT22;2913;51.120;6.772;2023-12-04T07:55:40;0.90;99.90
5775;DHT22;2913;51.120;6.772;2023-12-04T07:58:05;1.00;99.90
5775;DHT22;2913;51.120;6.772;2023-12-04T08:00:33;1.00;99.90
5775;DHT22;2913;51.120;6.772;2023-12-04T08:02:59;1.10;99.90
5775;DHT22;2913;51.120;6.772;2023-12-04T08:05:28;1.10;99.90
5775;DHT22;2913;51.120;6.772;2023-12-04T08:07:53;1.10;99.90
5775;DHT22;2913;51.120;6.772;2023-12-04T08:10:19;1.10;99.90
5775;DHT22;2913;51.120;6.772;2023-12-04T08:15:12;1.20;99.90
5775;DHT22;2913;51.120;6.772;2023-12-04T08:17:39;1.30;99.90
5775;DHT22;2913;51.120;6.772;2023-12-04T08:20:06;1.30;99.90
5775;DHT22;2913;51.120;6.772;2023-12-04T08:22:32;1.30;99.90
5775;DHT22;2913;51.120;6.772;2023-12-04T08:25:02;1.30;99.90
5775;DHT22;2913;51.120;6.772;2023-12-04T08:27:28;1.30;99.90
5775;DHT22;2913;51.120;6.772;2023-12-04T08:29:56;1.20;99.90
5775;DHT22;2913;51.120;6.772;2023-12-04T08:32:24;1.20;99.90
5775;DHT22;2913;51.120;6.772;2023-12-04T08:34:51;1.20;99.90
5775;DHT22;2913;51.120;6.772;2023-12-04T08:37:18;1.20;99.90
5775;DHT22;2913;51.120;6.772;2023-12-04T08:39:44;1.30;99.90
5775;DHT22;2913;51.120;6.772;2023-12-04T08:42:12;1.30;99.90
5775;DHT22;2913;51.120;6.772;2023-12-04T08:44:38;1.30;99.90
5775;DHT22;2913;51.120;6.772;2023-12-04T08:47:04;1.30;99.90
5775;DHT22;2913;51.120;6.772;2023-12-04T08:49:30;1.40;99.90
5775;DHT22;2913;51.120;6.772;2023-12-04T08:51:59;1.40;99.90
5775;DHT22;2913;51.120;6.772;2023-12-04T08:54:27;1.30;99.90
5775;DHT22;2913;51.120;6.772;2023-12-04T08:56:52;1.30;99.90
5775;DHT22;2913;51.120;6.772;2023-12-04T08:59:19;1.40;99.90
5775;DHT22;2913;51.120;6.772;2023-12-04T09:01:45;1.30;99.90
5775;DHT22;2913;51.120;6.772;2023-12-04T09:04:13;1.40;99.90
5775;DHT22;2913;51.120;6.772;2023-12-04T09:06:38;1.30;99.90
5775;DHT22;2913;51.120;6.772;2023-12-04T09:09:04;1.30;99.90
5775;DHT22;2913;51.120;6.772;2023-12-04T09:11:30;1.30;99.90
5775;DHT22;2913;51.120;6.772;2023-12-04T09:13:55;1.40;99.90
5775;DHT22;2913;51.120;6.772;2023-12-04T09:18:51;1.50;99.90
5775;DHT22;2913;51.120;6.772;2023-12-04T09:21:18;1.50;99.90
5775;DHT22;2913;51.120;6.772;2023-12-04T09:23:44;1.50;99.90
5775;DHT22;2913;51.120;6.772;2023-12-04T09:26:17;1.50;99.90
5775;DHT22;2913;51.120;6.772;2023-12-04T09:28:43;1.60;99.90
5775;DHT22;2913;51.120;6.772;2023-12-04T09:33:40;1.60;99.90
5775;DHT22;2913;51.120;6.772;2023-12-04T09:36:09;1.50;99.90
5775;DHT22;2913;51.120;6.772;2023-12-04T09:38:37;1.60;99.90
5775;DHT22;2913;51.120;6.772;2023-12-04T09:41:06;1.50;99.90
5775;DHT22;2913;51.120;6.772;2023-12-04T09:43:38;1.60;99.90
5775;DHT22;2913;51.120;6.772;2023-12-04T09:46:09;1.60;99.90
5775;DHT22;2913;51.120;6.772;2023-12-04T09:48:40;1.70;99.90
5775;DHT22;2913;51.120;6.772;2023-12-04T09:51:06;1.70;99.90
5775;DHT22;2913;51.120;6.772;2023-12-04T09:53:33;1.70;99.90
5775;DHT22;2913;51.120;6.772;2023-12-04T09:56:03;1.70;99.90
5775;DHT22;2913;51.120;6.772;2023-12-04T09:58:28;1.70;99.90
5775;DHT22;2913;51.120;6.772;2023-12-04T10:00:56;1.80;99.90
5775;DHT22;2913;51.120;6.772;2023-12-04T10:03:23;1.80;99.90
5775;DHT22;2913;51.120;6.772;2023-12-04T10:05:49;1.90;99.90
5775;DHT22;2913;51.120;6.772;2023-12-04T10:08:15;1.90;99.90
5775;DHT22;2913;51.120;6.772;2023-12-04T10:10:42;1.80;99.90
5775;DHT22;2913;51.120;6.772;2023-12-04T10:13:08;1.90;99.90
5775;DHT22;2913;51.120;6.772;2023-12-04T10:15:49;1.90;99.90
5775;DHT22;2913;51.120;6.772;2023-12-04T10:18:29;1.90;99.90
5775;DHT22;2913;51.120;6.772;2023-12-04T10:21:00;1.90;99.90
5775;DHT22;2913;51.120;6.772;2023-12-04T10:23:38;2.00;99.90
5775;DHT22;2913;51.120;6.772;2023-12-04T10:26:04;1.90;99.90
5775;DHT22;2913;51.120;6.772;2023-12-04T10:28:30;1.90;99.90
5775;DHT22;2913;51.120;6.772;2023-12-04T10:30:56;2.00;99.90
5775;DHT22;2913;51.120;6.772;2023-12-04T10:33:24;1.80;99.90
5775;DHT22;2913;51.120;6.772;2023-12-04T10:35:55;1.90;99.90
5775;DHT22;2913;51.120;6.772;2023-12-04T10:38:23;1.90;99.90
5775;DHT22;2913;51.120;6.772;2023-12-04T10:40:48;1.80;99.90
5775;DHT22;2913;51.120;6.772;2023-12-04T10:43:32;1.90;99.90
5775;DHT22;2913;51.120;6.772;2023-12-04T10:45:58;1.90;99.90
5775;DHT22;2913;51.120;6.772;2023-12-04T10:48:23;1.90;99.90
5775;DHT22;2913;51.120;6.772;2023-12-04T10:50:49;1.90;99.90
5775;DHT22;2913;51.120;6.772;2023-12-04T10:53:16;1.90;99.90
5775;DHT22;2913;51.120;6.772;2023-12-04T10:55:42;1.90;99.90
5775;DHT22;2913;51.120;6.772;2023-12-04T10:58:14;1.90;99.90
5775;DHT22;2913;51.120;6.772;2023-12-04T11:00:48;2.00;99.90
5775;DHT22;2913;51.120;6.772;2023-12-04T11:03:25;2.00;99.90
5775;DHT22;2913;51.120;6.772;2023-12-04T11:06:00;1.90;99.90
5775;DHT22;2913;51.120;6.772;2023-12-04T11:08:29;1.90;99.90
5775;DHT22;2913;51.120;6.772;2023-12-04T11:13:28;1.80;99.90
5775;DHT22;2913;51.120;6.772;2023-12-04T11:16:02;1.70;99.90
5775;DHT22;2913;51.120;6.772;2023-12-04T11:18:38;1.70;99.90
5775;DHT22;2913;51.120;6.772;2023-12-04T11:21:11;1.70;99.90
5775;DHT22;2913;51.120;6.772;2023-12-04T11:23:37;1.60;99.90
5775;DHT22;2913;51.120;6.772;2023-12-04T11:26:07;1.50;99.90
5775;DHT22;2913;51.120;6.772;2023-12-04T11:28:37;1.50;99.90
5775;DHT22;2913;51.120;6.772;2023-12-04T11:31:04;1.40;99.90
5775;DHT22;2913;51.120;6.772;2023-12-04T11:33:37;1.40;99.90
5775;DHT22;2913;51.120;6.772;2023-12-04T11:36:08;1.40;99.90
5775;DHT22;2913;51.120;6.772;2023-12-04T11:38:37;1.40;99.90
5775;DHT22;2913;51.120;6.772;2023-12-04T11:43:42;1.60;99.90
5775;DHT22;2913;51.120;6.772;2023-12-04T11:46:09;1.50;99.90
5775;DHT22;2913;51.120;6.772;2023-12-04T11:48:37;1.60;99.90
5775;DHT22;2913;51.120;6.772;2023-12-04T11:51:06;1.60;99.90
5775;DHT22;2913;51.120;6.772;2023-12-04T11:53:37;1.60;99.90
5775;DHT22;2913;51.120;6.772;2023-12-04T11:56:14;1.60;99.90
5775;DHT22;2913;51.120;6.772;2023-12-04T11:58:47;1.60;99.90
5775;DHT22;2913;51.120;6.772;2023-12-04T12:01:17;1.50;99.90
5775;DHT22;2913;51.120;6.772;2023-12-04T12:03:50;1.50;99.90
5775;DHT22;2913;51.120;6.772;2023-12-04T12:06:16;1.40;99.90
5775;DHT22;2913;51.120;6.772;2023-12-04T12:08:44;1.40;99.90
5775;DHT22;2913;51.120;6.772;2023-12-04T12:11:11;1.50;99.90
5775;DHT22;2913;51.120;6.772;2023-12-04T12:13:40;1.30;99.90
5775;DHT22;2913;51.120;6.772;2023-12-04T12:16:06;1.30;99.90
5775;DHT22;2913;51.120;6.772;2023-12-04T12:18:34;1.30;99.90
5775;DHT22;2913;51.120;6.772;2023-12-04T12:21:00;1.30;99.90
5775;DHT22;2913;51.120;6.772;2023-12-04T12:23:26;1.30;99.90
5775;DHT22;2913;51.120;6.772;2023-12-04T12:25:52;1.30;99.90
5775;DHT22;2913;51.120;6.772;2023-12-04T12:28:18;1.30;99.90
5775;DHT22;2913;51.120;6.772;2023-12-04T12:30:48;1.30;99.90
5775;DHT22;2913;51.120;6.772;2023-12-04T12:33:16;1.30;99.90
5775;DHT22;2913;51.120;6.772;2023-12-04T12:35:42;1.30;99.90
5775;DHT22;2913;51.120;6.772;2023-12-04T12:38:08;1.30;99.90
5775;DHT22;2913;51.120;6.772;2023-12-04T12:40:36;1.30;99.90
5775;DHT22;2913;51.120;6.772;2023-12-04T12:43:08;1.30;99.90
5775;DHT22;2913;51.120;6.772;2023-12-04T12:45:44;1.30;99.90
5775;DHT22;2913;51.120;6.772;2023-12-04T12:48:13;1.30;99.90
5775;DHT22;2913;51.120;6.772;2023-12-04T12:50:39;1.20;99.90
5775;DHT22;2913;51.120;6.772;2023-12-04T12:53:08;1.30;99.90
5775;DHT22;2913;51.120;6.772;2023-12-04T12:55:38;1.20;99.90
5775;DHT22;2913;51.120;6.772;2023-12-04T12:58:06;1.20;99.90
5775;DHT22;2913;51.120;6.772;2023-12-04T13:00:34;1.30;99.90
5775;DHT22;2913;51.120;6.772;2023-12-04T13:03:00;1.20;99.90
5775;DHT22;2913;51.120;6.772;2023-12-04T13:05:31;1.20;99.90
5775;DHT22;2913;51.120;6.772;2023-12-04T13:07:56;1.30;99.90
5775;DHT22;2913;51.120;6.772;2023-12-04T13:10:22;1.30;99.90
5775;DHT22;2913;51.120;6.772;2023-12-04T13:12:52;1.30;99.90
5775;DHT22;2913;51.120;6.772;2023-12-04T13:15:19;1.30;99.90
5775;DHT22;2913;51.120;6.772;2023-12-04T13:17:45;1.30;99.90
5775;DHT22;2913;51.120;6.772;2023-12-04T13:20:10;1.30;99.90
5775;DHT22;2913;51.120;6.772;2023-12-04T13:22:39;1.30;99.90
5775;DHT22;2913;51.120;6.772;2023-12-04T13:25:05;1.30;99.90
5775;DHT22;2913;51.120;6.772;2023-12-04T13:27:33;1.30;99.90
5775;DHT22;2913;51.120;6.772;2023-12-04T13:29:58;1.30;99.90
5775;DHT22;2913;51.120;6.772;2023-12-04T13:32:24;1.30;99.90
5775;DHT22;2913;51.120;6.772;2023-12-04T13:34:50;1.30;99.90
5775;DHT22;2913;51.120;6.772;2023-12-04T13:37:15;1.30;99.90
5775;DHT22;2913;51.120;6.772;2023-12-04T13:39:41;1.30;99.90
5775;DHT22;2913;51.120;6.772;2023-12-04T13:42:16;1.40;99.90
5775;DHT22;2913;51.120;6.772;2023-12-04T13:45:01;1.40;99.90
5775;DHT22;2913;51.120;6.772;2023-12-04T13:47:29;1.40;99.90
5775;DHT22;2913;51.120;6.772;2023-12-04T13:49:55;1.40;99.90
5775;DHT22;2913;51.120;6.772;2023-12-04T13:52:21;1.40;99.90
5775;DHT22;2913;51.120;6.772;2023-12-04T13:54:50;1.40;99.90
5775;DHT22;2913;51.120;6.772;2023-12-04T13:57:16;1.40;99.90
5775;DHT22;2913;51.120;6.772;2023-12-04T14:00:01;1.50;99.90
5775;DHT22;2913;51.120;6.772;2023-12-04T14:02:32;1.60;99.90
5775;DHT22;2913;51.120;6.772;2023-12-04T14:05:05;1.50;99.90
5775;DHT22;2913;51.120;6.772;2023-12-04T14:07:30;1.50;99.90
5775;DHT22;2913;51.120;6.772;2023-12-04T14:09:56;1.60;99.90
5775;DHT22;2913;51.120;6.772;2023-12-04T14:12:21;1.60;99.90
5775;DHT22;2913;51.120;6.772;2023-12-04T14:14:49;1.60;99.90
5775;DHT22;2913;51.120;6.772;2023-12-04T14:17:22;1.60;99.90
5775;DHT22;2913;51.120;6.772;2023-12-04T14:19:48;1.70;99.90
5775;DHT22;2913;51.120;6.772;2023-12-04T14:22:16;1.70;99.90
5775;DHT22;2913;51.120;6.772;2023-12-04T14:24:41;1.70;99.90
5775;DHT22;2913;51.120;6.772;2023-12-04T14:27:07;1.70;99.90
5775;DHT22;2913;51.120;6.772;2023-12-04T14:29:33;1.70;99.90
5775;DHT22;2913;51.120;6.772;2023-12-04T14:31:58;1.80;99.90
5775;DHT22;2913;51.120;6.772;2023-12-04T14:34:24;1.70;99.90
5775;DHT22;2913;51.120;6.772;2023-12-04T14:36:53;1.80;99.90
5775;DHT22;2913;51.120;6.772;2023-12-04T14:39:21;1.80;99.90
5775;DHT22;2913;51.120;6.772;2023-12-04T14:41:52;1.90;99.90
5775;DHT22;2913;51.120;6.772;2023-12-04T14:44:17;1.90;99.90
5775;DHT22;2913;51.120;6.772;2023-12-04T14:46:43;1.90;99.90
5775;DHT22;2913;51.120;6.772;2023-12-04T14:49:09;1.90;99.90
5775;DHT22;2913;51.120;6.772;2023-12-04T14:51:35;1.90;99.90
5775;DHT22;2913;51.120;6.772;2023-12-04T14:54:00;1.90;99.90
5775;DHT22;2913;51.120;6.772;2023-12-04T14:56:43;1.90;99.90
5775;DHT22;2913;51.120;6.772;2023-12-04T14:59:11;1.90;99.90
5775;DHT22;2913;51.120;6.772;2023-12-04T15:02:09;1.90;99.90
5775;DHT22;2913;51.120;6.772;2023-12-04T15:04:47;1.90;99.90
5775;DHT22;2913;51.120;6.772;2023-12-04T15:07:31;1.90;99.90
5775;DHT22;2913;51.120;6.772;2023-12-04T15:10:02;1.90;99.90
5775;DHT22;2913;51.120;6.772;2023-12-04T15:12:42;2.00;99.90
5775;DHT22;2913;51.120;6.772;2023-12-04T15:15:43;1.90;99.90
5775;DHT22;2913;51.120;6.772;2023-12-04T15:18:14;2.00;99.90
5775;DHT22;2913;51.120;6.772;2023-12-04T15:21:02;2.10;99.90
5775;DHT22;2913;51.120;6.772;2023-12-04T15:23:28;2.00;99.90
5775;DHT22;2913;51.120;6.772;2023-12-04T15:25:53;2.00;99.90
5775;DHT22;2913;51.120;6.772;2023-12-04T15:28:19;2.00;99.90
5775;DHT22;2913;51.120;6.772;2023-12-04T15:30:44;2.00;99.90
5775;DHT22;2913;51.120;6.772;2023-12-04T15:33:10;1.90;99.90
5775;DHT22;2913;51.120;6.772;2023-12-04T15:35:36;1.90;99.90
5775;DHT22;2913;51.120;6.772;2023-12-04T15:38:06;1.90;99.90
5775;DHT22;2913;51.120;6.772;2023-12-04T15:40:31;1.80;99.90
5775;DHT22;2913;51.120;6.772;2023-12-04T15:42:57;1.70;99.90
5775;DHT22;2913;51.120;6.772;2023-12-04T15:45:23;1.70;99.90
5775;DHT22;2913;51.120;6.772;2023-12-04T15:47:49;1.70;99.90
5775;DHT22;2913;51.120;6.772;2023-12-04T15:50:20;1.70;99.90
5775;DHT22;2913;51.120;6.772;2023-12-04T15:52:48;1.70;99.90
5775;DHT22;2913;51.120;6.772;2023-12-04T15:55:16;1.70;99.90
5775;DHT22;2913;51.120;6.772;2023-12-04T15:57:44;1.60;99.90
5775;DHT22;2913;51.120;6.772;2023-12-04T16:00:10;1.60;99.90
5775;DHT22;2913;51.120;6.772;2023-12-04T16:02:41;1.60;99.90
5775;DHT22;2913;51.120;6.772;2023-12-04T16:05:08;1.50;99.90
5775;DHT22;2913;51.120;6.772;2023-12-04T16:07:39;1.50;99.90
5775;DHT22;2913;51.120;6.772;2023-12-04T16:10:08;1.50;99.90
5775;DHT22;2913;51.120;6.772;2023-12-04T16:12:39;1.60;99.90
5775;DHT22;2913;51.120;6.772;2023-12-04T16:15:08;1.50;99.90
5775;DHT22;2913;51.120;6.772;2023-12-04T16:17:35;1.50;99.90
5775;DHT22;2913;51.120;6.772;2023-12-04T16:20:04;1.60;99.90
5775;DHT22;2913;51.120;6.772;2023-12-04T16:22:36;1.60;99.90
5775;DHT22;2913;51.120;6.772;2023-12-04T16:25:04;1.50;99.90
5775;DHT22;2913;51.120;6.772;2023-12-04T16:27:30;1.50;99.90
5775;DHT22;2913;51.120;6.772;2023-12-04T16:29:56;1.60;99.90
5775;DHT22;2913;51.120;6.772;2023-12-04T16:32:21;1.60;99.90
5775;DHT22;2913;51.120;6.772;2023-12-04T16:34:50;1.60;99.90
5775;DHT22;2913;51.120;6.772;2023-12-04T16:37:16;1.60;99.90
5775;DHT22;2913;51.120;6.772;2023-12-04T16:39:41;1.60;99.90
5775;DHT22;2913;51.120;6.772;2023-12-04T16:42:09;1.60;99.90